createdAt,value
2023-01-19T00:00:25.103Z,28.39
2023-01-19T00:01:25.007Z,28.38
2023-01-19T00:02:24.995Z,28.39
2023-01-19T00:03:24.925Z,28.43
2023-01-19T00:04:24.871Z,28.42
2023-01-19T00:05:24.852Z,28.42
2023-01-19T00:06:24.792Z,28.44
2023-01-19T00:07:24.742Z,28.39
2023-01-19T04:23:43.079Z,27.42
2023-01-19T04:24:43.039Z,27.39
2023-01-19T04:25:43.028Z,27.39
2023-01-19T04:26:43.009Z,27.41
2023-01-19T04:27:42.992Z,27.40
2023-01-19T04:28:42.992Z,27.38
2023-01-19T04:29:42.955Z,27.38
2023-01-19T04:30:42.938Z,27.41
2023-01-19T04:31:42.920Z,27.38
2023-01-19T04:32:42.908Z,27.42
2023-01-19T04:33:42.888Z,27.37
2023-01-19T04:34:42.865Z,27.38
2023-01-19T04:35:42.845Z,27.38
2023-01-19T04:36:42.835Z,27.37
2023-01-19T04:37:42.806Z,27.36
2023-01-19T04:38:42.808Z,27.37
2023-01-19T06:03:41.103Z,27.13
2023-01-19T06:04:41.001Z,27.12
2023-01-19T06:05:40.996Z,27.12
2023-01-19T06:06:40.961Z,27.11
2023-01-19T06:07:40.943Z,27.09
2023-01-19T06:08:40.928Z,27.11
2023-01-19T06:09:40.914Z,27.12
2023-01-19T06:10:40.907Z,27.10
2023-01-19T06:11:40.888Z,27.14
2023-01-19T06:12:40.996Z,27.09
2023-01-19T06:13:42.122Z,27.09
2023-01-19T06:14:40.867Z,27.13
2023-01-19T06:15:40.831Z,27.09
2023-01-19T06:17:40.803Z,27.10
2023-01-19T06:19:40.761Z,27.06
2023-01-19T06:20:40.734Z,27.09
2023-01-19T06:21:40.718Z,27.13
2023-01-19T06:22:40.706Z,27.22
2023-01-19T06:24:40.663Z,27.36
2023-01-19T06:25:40.632Z,27.44
2023-01-19T06:26:40.629Z,27.43
2023-01-19T06:27:40.609Z,27.43
2023-01-19T06:29:40.567Z,27.53
2023-01-19T06:30:40.608Z,27.52
2023-01-19T06:31:40.574Z,27.58
2023-01-19T06:32:40.518Z,27.64
2023-01-19T06:33:40.497Z,27.64
2023-01-19T06:34:40.479Z,27.67
2023-01-19T06:35:40.456Z,27.69
2023-01-19T06:36:40.442Z,27.75
2023-01-19T06:37:40.553Z,27.78
2023-01-19T06:38:40.416Z,27.74
2023-01-19T06:39:40.553Z,27.83
2023-01-19T06:40:40.373Z,27.85
2023-01-19T06:41:40.368Z,27.91
2023-01-19T06:42:40.341Z,27.95
2023-01-19T06:43:40.329Z,27.97
2023-01-19T06:44:40.554Z,27.97
2023-01-19T06:45:40.406Z,28.03
2023-01-19T06:46:40.309Z,28.05
2023-01-19T06:47:40.695Z,28.09
2023-01-19T06:48:40.278Z,28.10
2023-01-19T06:49:40.558Z,28.10
2023-01-19T06:50:40.182Z,28.14
2023-01-19T06:52:40.150Z,28.24
2023-01-19T06:54:40.109Z,28.68
2023-01-19T06:55:41.061Z,28.78
2023-01-19T06:57:40.013Z,29.18
2023-01-19T06:58:39.998Z,29.32
2023-01-19T06:59:40.786Z,29.42
2023-01-19T07:00:39.947Z,29.51
2023-01-19T07:01:40.083Z,29.70
2023-01-19T07:02:40.047Z,29.70
2023-01-19T07:03:40.062Z,29.81
2023-01-19T07:04:39.849Z,30.13
2023-01-19T07:05:39.828Z,30.24
2023-01-19T07:06:55.420Z,30.18
2023-01-19T07:07:40.092Z,30.44
2023-01-19T07:09:39.741Z,30.55
2023-01-19T07:11:22.287Z,30.66
2023-01-19T07:11:39.687Z,30.60
2023-01-19T07:12:40.063Z,30.72
2023-01-19T07:13:39.636Z,30.84
2023-01-19T07:14:39.797Z,30.89
2023-01-19T07:15:39.603Z,31.07
2023-01-19T07:16:39.609Z,31.08
2023-01-19T07:17:39.571Z,31.20
2023-01-19T07:19:39.489Z,31.49
2023-01-19T07:20:39.472Z,31.59
2023-01-19T07:23:39.388Z,31.52
2023-01-19T07:24:39.358Z,31.58
2023-01-19T07:25:39.409Z,31.67
2023-01-19T07:26:39.307Z,31.75
2023-01-19T07:27:39.651Z,31.69
2023-01-19T07:28:39.287Z,31.91
2023-01-19T07:29:39.320Z,28.86
2023-01-19T07:30:39.415Z,26.88
2023-01-19T07:31:39.823Z,26.11
2023-01-19T07:32:39.189Z,25.30
2023-01-19T07:33:39.167Z,24.85
2023-01-19T07:34:39.231Z,24.85
2023-01-19T07:35:39.196Z,24.27
2023-01-19T07:36:39.220Z,24.05
2023-01-19T07:37:39.612Z,23.88
2023-01-19T07:38:39.622Z,23.98
2023-01-19T07:39:39.277Z,23.74
2023-01-19T07:40:39.274Z,23.70
2023-01-19T07:41:55.661Z,23.48
2023-01-19T07:43:39.391Z,24.76
2023-01-19T07:44:39.421Z,25.28
2023-01-19T07:45:39.830Z,25.77
2023-01-19T07:47:39.493Z,26.72
2023-01-19T07:48:39.472Z,26.93
2023-01-19T07:49:39.490Z,27.00
2023-01-19T07:50:39.631Z,27.24
2023-01-19T07:51:39.602Z,27.38
2023-01-19T07:53:42.841Z,27.74
2023-01-19T07:54:39.443Z,27.85
2023-01-19T07:55:39.433Z,27.97
2023-01-19T07:58:39.618Z,28.35
2023-01-19T08:00:39.401Z,28.69
2023-01-19T08:01:39.579Z,28.77
2023-01-19T08:02:39.362Z,28.88
2023-01-19T08:03:39.620Z,28.92
2023-01-19T08:04:39.596Z,28.94
2023-01-19T08:05:39.360Z,28.88
2023-01-19T08:06:39.388Z,29.10
2023-01-19T08:07:39.250Z,29.13
2023-01-19T08:09:39.210Z,29.32
2023-01-19T08:10:39.370Z,29.49
2023-01-19T08:11:39.281Z,29.52
2023-01-19T08:12:39.764Z,29.60
2023-01-19T08:13:39.147Z,29.81
2023-01-19T08:14:39.058Z,29.94
2023-01-19T08:15:39.076Z,29.94
2023-01-19T08:17:39.015Z,30.17
2023-01-19T08:18:40.140Z,30.14
2023-01-19T08:19:41.365Z,30.07
2023-01-19T08:20:39.908Z,30.18
2023-01-19T08:23:39.214Z,30.46
2023-01-19T08:24:38.819Z,30.50
2023-01-19T08:25:38.831Z,30.54
2023-01-19T08:26:39.783Z,30.63
2023-01-19T08:27:38.728Z,30.77
2023-01-19T08:28:39.137Z,30.80
2023-01-19T08:29:38.682Z,30.85
2023-01-19T08:30:38.757Z,30.81
2023-01-19T08:32:38.607Z,30.77
2023-01-19T08:33:38.773Z,30.54
2023-01-19T08:34:38.513Z,30.22
2023-01-19T08:35:38.479Z,29.86
2023-01-19T08:36:38.490Z,29.93
2023-01-19T08:37:39.390Z,30.21
2023-01-19T08:38:38.695Z,30.22
2023-01-19T08:39:38.410Z,30.31
2023-01-19T08:40:38.351Z,30.47
2023-01-19T08:41:38.320Z,30.49
2023-01-19T08:42:38.283Z,30.51
2023-01-19T08:43:38.725Z,30.54
2023-01-19T08:44:46.637Z,30.69
2023-01-19T08:45:38.219Z,30.77
2023-01-19T08:46:38.231Z,30.68
2023-01-19T08:47:38.145Z,30.72
2023-01-19T08:48:39.817Z,30.73
2023-01-19T08:49:38.349Z,30.80
2023-01-19T08:50:38.008Z,30.81
2023-01-19T08:51:37.967Z,30.99
2023-01-19T08:52:37.901Z,31.05
2023-01-19T08:53:37.902Z,31.06
2023-01-19T08:54:38.174Z,31.26
2023-01-19T08:55:37.811Z,31.32
2023-01-19T08:56:38.018Z,31.45
2023-01-19T08:57:37.755Z,31.47
2023-01-19T08:59:38.136Z,31.77
2023-01-19T09:00:37.622Z,31.81
2023-01-19T09:01:37.850Z,31.74
2023-01-19T09:02:37.732Z,31.79
2023-01-19T09:03:37.496Z,31.88
2023-01-19T09:04:37.612Z,31.87
2023-01-19T09:05:37.470Z,31.99
2023-01-19T09:06:37.376Z,32.07
2023-01-19T09:07:37.363Z,32.16
2023-01-19T09:08:37.304Z,32.33
2023-01-19T09:09:37.656Z,32.23
2023-01-19T09:10:37.262Z,32.17
2023-01-19T09:11:37.162Z,32.22
2023-01-19T09:12:37.606Z,32.23
2023-01-19T09:13:37.076Z,32.31
2023-01-19T09:14:37.611Z,32.44
2023-01-19T09:15:36.986Z,32.37
2023-01-19T09:16:36.950Z,32.43
2023-01-19T09:17:36.923Z,32.42
2023-01-19T09:18:36.850Z,32.48
2023-01-19T09:19:36.827Z,32.50
2023-01-19T09:20:36.762Z,32.57
2023-01-19T09:21:36.717Z,32.57
2023-01-19T09:22:37.113Z,32.61
2023-01-19T09:23:36.649Z,32.70
2023-01-19T09:24:36.594Z,32.68
2023-01-19T09:25:36.566Z,32.65
2023-01-19T09:26:36.557Z,32.72
2023-01-19T09:27:36.615Z,32.94
2023-01-19T09:28:36.597Z,32.86
2023-01-19T09:29:36.353Z,32.92
2023-01-19T09:30:36.752Z,33.11
2023-01-19T09:31:36.334Z,33.02
2023-01-19T09:32:36.840Z,33.15
2023-01-19T09:33:36.180Z,33.21
2023-01-19T09:34:37.115Z,33.24
2023-01-19T09:35:36.116Z,33.11
2023-01-19T09:36:36.056Z,33.16
2023-01-19T09:37:35.994Z,33.34
2023-01-19T09:38:35.949Z,33.37
2023-01-19T09:39:35.929Z,33.45
2023-01-19T09:40:41.331Z,33.83
2023-01-19T09:41:35.800Z,33.48
2023-01-19T09:42:35.852Z,33.47
2023-01-19T09:43:35.734Z,33.29
2023-01-19T09:44:35.696Z,33.33
2023-01-19T09:45:35.628Z,33.19
2023-01-19T09:46:36.373Z,33.14
2023-01-19T09:47:35.631Z,32.96
2023-01-19T09:48:35.481Z,32.88
2023-01-19T09:49:35.438Z,32.80
2023-01-19T09:50:35.396Z,32.60
2023-01-19T09:51:36.262Z,32.55
2023-01-19T09:52:35.626Z,32.52
2023-01-19T09:53:35.250Z,32.52
2023-01-19T09:54:35.206Z,32.32
2023-01-19T09:55:35.157Z,32.41
2023-01-19T09:56:35.168Z,32.40
2023-01-19T09:57:35.140Z,32.40
2023-01-19T09:58:35.044Z,32.40
2023-01-19T09:59:34.978Z,32.36
2023-01-19T10:00:35.191Z,32.28
2023-01-19T10:01:35.488Z,32.27
2023-01-19T10:02:34.878Z,32.27
2023-01-19T10:03:34.790Z,32.22
2023-01-19T10:04:34.753Z,32.12
2023-01-19T10:05:35.131Z,32.07
2023-01-19T10:06:35.142Z,32.03
2023-01-19T10:07:34.626Z,32.05
2023-01-19T10:08:34.587Z,32.02
2023-01-19T10:09:34.535Z,31.91
2023-01-19T10:10:34.650Z,31.88
2023-01-19T10:11:42.165Z,31.89
2023-01-19T10:12:34.402Z,31.85
2023-01-19T10:13:34.352Z,31.78
2023-01-19T10:14:34.332Z,31.78
2023-01-19T10:15:34.637Z,31.69
2023-01-19T10:16:34.214Z,31.64
2023-01-19T10:17:34.177Z,31.56
2023-01-19T10:18:34.143Z,31.56
2023-01-19T10:19:34.091Z,31.52
2023-01-19T10:20:34.046Z,31.46
2023-01-19T10:21:34.137Z,31.46
2023-01-19T10:22:33.961Z,31.42
2023-01-19T10:23:33.932Z,31.32
2023-01-19T10:24:33.878Z,31.29
2023-01-19T10:25:33.899Z,31.30
2023-01-19T10:26:34.140Z,31.26
2023-01-19T10:27:33.753Z,31.23
2023-01-19T10:28:33.726Z,31.16
2023-01-19T10:29:33.712Z,31.12
2023-01-19T10:30:33.769Z,31.09
2023-01-19T10:31:33.723Z,31.03
2023-01-19T10:32:33.574Z,31.01
2023-01-19T10:33:33.542Z,31.01
2023-01-19T10:34:33.483Z,30.96
2023-01-19T10:35:33.450Z,30.93
2023-01-19T10:36:33.657Z,30.88
2023-01-19T10:37:34.364Z,30.84
2023-01-19T10:38:33.395Z,30.81
2023-01-19T10:39:37.987Z,30.78
2023-01-19T10:40:33.648Z,30.73
2023-01-19T10:41:33.675Z,30.70
2023-01-19T10:42:33.185Z,30.64
2023-01-19T10:43:33.203Z,30.64
2023-01-19T10:44:33.152Z,30.61
2023-01-19T10:45:34.847Z,30.60
2023-01-19T10:46:33.234Z,30.55
2023-01-19T10:47:33.002Z,30.55
2023-01-19T10:48:32.946Z,30.52
2023-01-19T10:49:33.178Z,30.45
2023-01-19T10:50:33.224Z,30.43
2023-01-19T10:51:32.837Z,30.42
2023-01-19T10:52:32.840Z,30.37
2023-01-19T10:53:32.763Z,30.34
2023-01-19T10:54:32.796Z,30.34
2023-01-19T10:55:32.775Z,30.28
2023-01-19T10:56:32.679Z,30.25
2023-01-19T10:57:33.283Z,30.20
2023-01-19T10:58:32.562Z,30.19
2023-01-19T10:59:32.727Z,30.14
2023-01-19T11:00:32.628Z,30.13
2023-01-19T11:01:32.822Z,30.11
2023-01-19T11:02:32.643Z,30.10
2023-01-19T11:03:32.436Z,30.03
2023-01-19T11:04:32.351Z,30.03
2023-01-19T11:05:32.311Z,29.98
2023-01-19T11:06:32.658Z,29.98
2023-01-19T11:07:32.236Z,29.95
2023-01-19T11:08:32.216Z,29.93
2023-01-19T11:09:32.217Z,29.89
2023-01-19T11:10:32.131Z,29.87
2023-01-19T11:11:32.156Z,29.86
2023-01-19T11:12:32.170Z,29.83
2023-01-19T11:13:32.053Z,29.80
2023-01-19T11:14:31.983Z,29.76
2023-01-19T11:15:31.942Z,29.74
2023-01-19T11:16:32.224Z,29.74
2023-01-19T11:17:31.871Z,29.70
2023-01-19T11:18:31.872Z,29.68
2023-01-19T11:19:31.784Z,29.65
2023-01-19T11:20:31.750Z,29.64
2023-01-19T11:21:32.192Z,29.63
2023-01-19T11:22:31.693Z,29.60
2023-01-19T11:23:31.634Z,29.57
2023-01-19T11:24:31.596Z,29.56
2023-01-19T11:25:31.563Z,29.51
2023-01-19T11:26:31.694Z,29.21
2023-01-19T11:27:31.738Z,29.14
2023-01-19T11:28:31.475Z,31.03
2023-01-19T11:29:31.438Z,29.64
2023-01-19T11:30:31.359Z,31.06
2023-01-19T11:31:31.714Z,30.85
2023-01-19T11:32:33.155Z,30.17
2023-01-19T11:33:31.266Z,30.41
2023-01-19T11:34:31.351Z,30.96
2023-01-19T11:35:31.300Z,30.25
2023-01-19T11:36:31.353Z,30.36
2023-01-19T11:37:31.476Z,30.34
2023-01-19T11:38:31.312Z,30.25
2023-01-19T11:39:31.248Z,30.02
2023-01-19T11:40:30.946Z,30.32
2023-01-19T11:41:30.908Z,30.01
2023-01-19T11:42:31.174Z,32.25
2023-01-19T11:43:43.487Z,31.52
2023-01-19T11:44:30.774Z,31.93
2023-01-19T11:45:31.199Z,31.77
2023-01-19T11:46:30.676Z,31.12
2023-01-19T11:47:30.648Z,31.26
2023-01-19T11:48:30.581Z,32.53
2023-01-19T11:49:30.671Z,31.91
2023-01-19T11:50:30.526Z,31.14
2023-01-19T11:51:30.457Z,31.28
2023-01-19T11:52:30.415Z,32.01
2023-01-19T11:53:30.391Z,31.46
2023-01-19T11:54:30.419Z,31.98
2023-01-19T11:55:30.313Z,33.27
2023-01-19T11:56:30.263Z,31.89
2023-01-19T11:57:30.206Z,32.34
2023-01-19T11:58:31.152Z,32.48
2023-01-19T11:59:30.119Z,32.81
2023-01-19T12:00:30.099Z,32.32
2023-01-19T12:01:30.039Z,32.70
2023-01-19T12:02:30.317Z,35.23
2023-01-19T12:03:30.074Z,34.79
2023-01-19T12:04:29.894Z,33.87
2023-01-19T12:05:29.864Z,33.67
2023-01-19T12:06:29.869Z,33.05
2023-01-19T12:07:30.249Z,32.70
2023-01-19T12:08:29.782Z,32.73
2023-01-19T12:09:29.719Z,32.56
2023-01-19T12:10:29.658Z,32.56
2023-01-19T12:11:29.603Z,32.59
2023-01-19T12:12:29.712Z,32.72
2023-01-19T12:13:29.520Z,32.61
2023-01-19T12:14:29.476Z,32.62
2023-01-19T12:15:29.437Z,32.55
2023-01-19T12:16:29.445Z,32.66
2023-01-19T12:17:29.703Z,32.68
2023-01-19T12:18:29.312Z,32.72
2023-01-19T12:19:30.185Z,32.67
2023-01-19T12:20:29.218Z,32.76
2023-01-19T12:21:29.184Z,32.62
2023-01-19T12:22:29.174Z,32.61
2023-01-19T12:23:29.091Z,32.71
2023-01-19T12:24:29.187Z,32.70
2023-01-19T12:25:28.994Z,32.90
2023-01-19T12:26:28.962Z,33.07
2023-01-19T12:27:28.904Z,33.14
2023-01-19T12:28:28.845Z,33.26
2023-01-19T12:29:28.819Z,33.46
2023-01-19T12:30:28.810Z,33.40
2023-01-19T12:31:28.934Z,33.61
2023-01-19T12:32:28.710Z,33.62
2023-01-19T12:33:28.610Z,33.66
2023-01-19T12:34:28.568Z,33.70
2023-01-19T12:35:28.525Z,33.72
2023-01-19T12:36:28.466Z,33.93
2023-01-19T12:37:28.455Z,33.97
2023-01-19T12:38:28.799Z,34.21
2023-01-19T12:39:28.329Z,34.34
2023-01-19T12:40:28.279Z,34.53
2023-01-19T12:41:28.222Z,34.52
2023-01-19T12:42:28.219Z,34.48
2023-01-19T12:43:28.127Z,34.50
2023-01-19T12:44:28.072Z,34.74
2023-01-19T12:45:28.018Z,34.65
2023-01-19T12:46:27.998Z,34.83
2023-01-19T12:47:27.924Z,35.07
2023-01-19T12:48:27.876Z,35.11
2023-01-19T12:49:27.821Z,32.20
2023-01-19T12:50:28.193Z,30.64
2023-01-19T12:51:27.730Z,29.40
2023-01-19T12:52:27.712Z,28.46
2023-01-19T12:53:27.690Z,28.05
2023-01-19T12:54:27.732Z,27.42
2023-01-19T12:55:27.587Z,27.48
2023-01-19T12:56:27.569Z,26.96
2023-01-19T12:57:27.521Z,26.35
2023-01-19T12:58:27.696Z,26.37
2023-01-19T12:59:27.464Z,25.79
2023-01-19T13:00:27.442Z,25.24
2023-01-19T13:01:27.544Z,24.86
2023-01-19T13:02:27.463Z,24.77
2023-01-19T13:03:27.729Z,24.81
2023-01-19T13:04:27.353Z,24.33
2023-01-19T13:05:27.330Z,24.80
2023-01-19T13:06:27.695Z,25.10
2023-01-19T13:07:27.293Z,25.30
2023-01-19T13:08:27.695Z,25.08
2023-01-19T13:09:27.259Z,25.18
2023-01-19T13:10:27.256Z,26.52
2023-01-19T13:11:31.374Z,27.39
2023-01-19T13:12:27.185Z,27.89
2023-01-19T13:13:27.199Z,28.56
2023-01-19T13:14:27.233Z,28.49
2023-01-19T13:15:27.149Z,28.56
2023-01-19T13:16:27.199Z,28.90
2023-01-19T13:17:27.061Z,30.12
2023-01-19T13:18:27.230Z,30.27
2023-01-19T13:19:27.148Z,29.73
2023-01-19T13:20:26.969Z,29.62
2023-01-19T13:21:26.935Z,29.65
2023-01-19T13:22:27.221Z,29.78
2023-01-19T13:23:26.868Z,29.95
2023-01-19T13:24:26.816Z,30.09
2023-01-19T13:25:26.783Z,30.32
2023-01-19T13:26:27.242Z,30.44
2023-01-19T13:27:26.692Z,30.58
2023-01-19T13:28:26.660Z,30.75
2023-01-19T13:29:26.618Z,30.80
2023-01-19T13:30:26.630Z,30.89
2023-01-19T13:31:26.809Z,30.94
2023-01-19T13:32:26.499Z,31.09
2023-01-19T13:33:26.474Z,31.16
2023-01-19T13:34:26.428Z,31.32
2023-01-19T13:35:26.394Z,31.30
2023-01-19T13:36:26.345Z,31.32
2023-01-19T13:37:26.313Z,31.57
2023-01-19T13:38:26.283Z,31.62
2023-01-19T13:39:26.217Z,31.77
2023-01-19T13:40:26.350Z,31.75
2023-01-19T13:41:26.140Z,31.90
2023-01-19T13:42:26.146Z,32.03
2023-01-19T13:43:26.066Z,32.16
2023-01-19T13:44:25.998Z,32.17
2023-01-19T13:45:25.951Z,32.20
2023-01-19T13:46:25.941Z,32.47
2023-01-19T13:47:25.863Z,32.52
2023-01-19T13:48:26.292Z,32.53
2023-01-19T13:49:25.757Z,32.60
2023-01-19T13:50:25.709Z,32.70
2023-01-19T13:51:25.657Z,32.87
2023-01-19T13:52:25.713Z,32.98
2023-01-19T13:53:27.203Z,33.06
2023-01-19T13:54:25.654Z,33.12
2023-01-19T13:55:25.606Z,33.22
2023-01-19T13:56:25.595Z,33.21
2023-01-19T13:57:29.780Z,33.11
2023-01-19T13:58:25.456Z,33.11
2023-01-19T13:59:25.411Z,33.50
2023-01-19T14:00:25.349Z,33.71
2023-01-19T14:01:28.675Z,33.68
2023-01-19T14:02:25.469Z,33.78
2023-01-19T14:03:25.240Z,33.87
2023-01-19T14:04:25.201Z,34.05
2023-01-19T14:05:25.138Z,34.06
2023-01-19T14:06:25.102Z,34.26
2023-01-19T14:07:25.858Z,34.29
2023-01-19T14:08:25.226Z,34.38
2023-01-19T14:09:24.902Z,34.38
2023-01-19T14:10:25.254Z,34.48
2023-01-19T14:11:24.852Z,34.59
2023-01-19T14:12:24.743Z,34.69
2023-01-19T14:13:24.759Z,34.51
2023-01-19T14:14:24.651Z,34.47
2023-01-19T14:15:24.583Z,34.58
2023-01-19T14:16:24.773Z,34.54
2023-01-19T14:17:24.481Z,34.44
2023-01-19T14:18:24.440Z,34.43
2023-01-19T14:19:24.465Z,34.47
2023-01-19T14:20:24.318Z,34.23
2023-01-19T14:21:24.747Z,34.17
2023-01-19T14:22:24.194Z,34.21
2023-01-19T14:23:24.210Z,32.89
2023-01-19T14:24:24.125Z,30.29
2023-01-19T14:25:24.046Z,28.38
2023-01-19T14:26:24.001Z,27.89
2023-01-19T14:27:23.961Z,27.09
2023-01-19T14:28:23.934Z,26.80
2023-01-19T14:29:24.661Z,26.23
2023-01-19T14:30:23.919Z,25.75
2023-01-19T14:31:23.884Z,25.31
2023-01-19T14:32:23.829Z,24.99
2023-01-19T14:33:23.792Z,24.69
2023-01-19T14:34:23.775Z,24.61
2023-01-19T14:35:23.748Z,24.26
2023-01-19T14:36:23.727Z,24.02
2023-01-19T14:37:23.702Z,23.86
2023-01-19T14:38:23.732Z,23.68
2023-01-19T14:39:23.738Z,23.52
2023-01-19T14:40:23.644Z,23.44
2023-01-19T14:41:23.749Z,23.37
2023-01-19T14:42:23.621Z,23.11
2023-01-19T14:43:23.570Z,22.99
2023-01-19T14:44:23.551Z,22.86
2023-01-19T14:45:23.559Z,23.00
2023-01-19T14:46:23.768Z,22.97
2023-01-19T14:47:23.510Z,22.94
2023-01-19T14:48:23.481Z,22.82
2023-01-19T14:49:23.470Z,22.78
2023-01-19T14:50:26.696Z,23.08
2023-01-19T14:51:23.463Z,22.67
2023-01-19T14:52:23.460Z,22.48
2023-01-19T14:53:23.430Z,22.38
2023-01-19T14:54:23.412Z,22.30
2023-01-19T14:55:23.397Z,23.20
2023-01-19T14:56:23.393Z,24.09
2023-01-19T14:57:23.375Z,24.71
2023-01-19T14:58:23.351Z,24.90
2023-01-19T14:59:23.415Z,25.09
2023-01-19T15:00:23.316Z,25.29
2023-01-19T15:01:23.950Z,25.41
2023-01-19T15:02:23.314Z,25.54
2023-01-19T15:03:26.835Z,25.68
2023-01-19T15:04:23.198Z,25.81
2023-01-19T15:05:23.270Z,25.95
2023-01-19T15:06:23.122Z,26.13
2023-01-19T15:07:23.108Z,26.35
2023-01-19T15:08:23.062Z,26.51
2023-01-19T15:09:23.033Z,26.64
2023-01-19T15:10:22.983Z,26.78
2023-01-19T15:11:22.946Z,26.96
2023-01-19T15:12:22.906Z,27.02
2023-01-19T15:13:22.873Z,27.17
2023-01-19T15:14:22.838Z,27.37
2023-01-19T15:15:22.818Z,27.52
2023-01-19T15:16:22.783Z,27.58
2023-01-19T15:17:22.723Z,27.69
2023-01-19T15:18:22.658Z,27.86
2023-01-19T15:19:23.172Z,28.09
2023-01-19T15:20:22.745Z,28.26
2023-01-19T15:21:22.524Z,28.36
2023-01-19T15:22:22.474Z,28.37
2023-01-19T15:23:22.429Z,28.58
2023-01-19T15:24:22.745Z,28.77
2023-01-19T15:25:22.338Z,28.91
2023-01-19T15:26:22.279Z,28.84
2023-01-19T15:27:22.234Z,29.01
2023-01-19T15:28:22.186Z,29.14
2023-01-19T15:29:22.145Z,29.15
2023-01-19T15:30:22.169Z,29.19
2023-01-19T15:31:22.096Z,29.37
2023-01-19T15:32:21.985Z,29.43
2023-01-19T15:33:21.992Z,29.56
2023-01-19T15:34:21.893Z,29.58
2023-01-19T15:35:21.873Z,29.83
2023-01-19T15:36:21.820Z,29.68
2023-01-19T15:37:21.758Z,29.62
2023-01-19T15:38:21.715Z,29.43
2023-01-19T15:39:21.673Z,29.02
2023-01-19T15:40:21.786Z,28.81
2023-01-19T15:41:23.332Z,28.43
2023-01-19T15:42:21.536Z,28.29
2023-01-19T15:43:21.486Z,28.26
2023-01-19T15:44:21.444Z,27.72
2023-01-19T15:45:21.907Z,27.69
2023-01-19T15:46:21.365Z,27.20
2023-01-19T15:47:21.330Z,27.11
2023-01-19T15:48:21.290Z,27.34
2023-01-19T15:49:21.359Z,27.28
2023-01-19T15:50:21.191Z,27.02
2023-01-19T15:51:21.164Z,26.92
2023-01-19T15:52:21.107Z,26.87
2023-01-19T15:53:21.081Z,26.94
2023-01-19T15:54:21.034Z,26.75
2023-01-19T15:55:20.993Z,26.71
2023-01-19T15:56:20.973Z,26.62
2023-01-19T15:57:20.904Z,26.50
2023-01-19T15:58:20.876Z,26.53
2023-01-19T15:59:20.825Z,26.46
2023-01-19T16:00:20.784Z,26.38
2023-01-19T16:01:20.901Z,26.37
2023-01-19T16:02:20.774Z,26.12
2023-01-19T16:03:20.666Z,26.12
2023-01-19T16:04:20.634Z,26.11
2023-01-19T16:05:21.593Z,26.34
2023-01-19T16:06:20.562Z,26.25
2023-01-19T16:07:20.536Z,26.11
2023-01-19T16:08:20.484Z,26.08
2023-01-19T16:09:20.440Z,25.93
2023-01-19T16:10:20.406Z,25.86
2023-01-19T16:11:20.375Z,25.84
2023-01-19T16:12:20.343Z,25.82
2023-01-19T16:13:20.304Z,25.79
2023-01-19T16:14:20.276Z,25.69
2023-01-19T16:15:20.247Z,25.71
2023-01-19T16:16:20.263Z,25.60
2023-01-19T16:17:20.177Z,25.54
2023-01-19T16:18:20.135Z,25.64
2023-01-19T16:19:20.087Z,25.55
2023-01-19T16:20:20.061Z,25.50
2023-01-19T16:21:20.329Z,25.32
2023-01-19T16:22:19.989Z,25.23
2023-01-19T16:23:19.963Z,25.21
2023-01-19T16:24:19.919Z,25.20
2023-01-19T16:25:19.885Z,25.04
2023-01-19T16:26:19.854Z,24.95
2023-01-19T16:27:19.809Z,24.97
2023-01-19T16:28:19.771Z,24.96
2023-01-19T16:29:19.749Z,24.97
2023-01-19T16:30:19.786Z,24.85
2023-01-19T16:31:19.699Z,24.90
2023-01-19T16:32:19.627Z,24.91
2023-01-19T16:33:19.598Z,24.82
2023-01-19T16:34:19.561Z,24.95
2023-01-19T16:35:19.548Z,24.92
2023-01-19T16:36:19.773Z,24.93
2023-01-19T16:37:19.481Z,25.00
2023-01-19T16:38:19.418Z,24.94
2023-01-19T16:39:19.374Z,24.91
2023-01-19T16:40:19.334Z,24.93
2023-01-19T16:41:19.310Z,24.96
2023-01-19T16:42:19.261Z,25.02
2023-01-19T16:43:19.219Z,24.98
2023-01-19T16:44:19.196Z,24.99
2023-01-19T16:45:19.151Z,24.97
2023-01-19T16:46:19.119Z,24.93
2023-01-19T16:47:19.069Z,24.91
2023-01-19T16:48:19.036Z,24.93
2023-01-19T16:49:19.013Z,24.94
2023-01-19T16:50:19.018Z,24.92
2023-01-19T16:51:18.938Z,24.85
2023-01-19T16:52:18.894Z,24.80
2023-01-19T16:53:17.896Z,24.67
2023-01-19T16:54:18.815Z,24.75
2023-01-19T16:55:18.783Z,24.71
2023-01-19T16:56:18.755Z,24.65
2023-01-19T16:57:18.706Z,24.64
2023-01-19T16:58:18.672Z,24.69
2023-01-19T16:59:18.639Z,24.66
2023-01-19T17:00:19.275Z,24.62
2023-01-19T17:01:20.151Z,24.66
2023-01-19T17:02:18.522Z,24.57
2023-01-19T17:03:18.488Z,24.57
2023-01-19T17:04:18.461Z,24.47
2023-01-19T17:05:18.417Z,24.41
2023-01-19T17:06:18.411Z,24.44
2023-01-19T17:07:19.206Z,24.42
2023-01-19T17:08:18.316Z,24.33
2023-01-19T17:09:18.308Z,24.33
2023-01-19T17:10:18.272Z,24.34
2023-01-19T17:11:18.218Z,27.66
2023-01-19T17:12:18.201Z,25.66
2023-01-19T17:13:18.152Z,26.49
2023-01-19T17:14:18.132Z,24.93
2023-01-19T17:15:18.091Z,24.70
2023-01-19T17:16:18.093Z,25.37
2023-01-19T17:17:18.027Z,28.74
2023-01-19T17:18:17.997Z,31.15
2023-01-19T17:19:17.970Z,35.63
2023-01-19T17:20:17.920Z,31.87
2023-01-19T17:21:18.015Z,28.94
2023-01-19T17:22:17.883Z,35.47
2023-01-19T17:23:17.821Z,30.13
2023-01-19T17:24:17.822Z,29.85
2023-01-19T17:25:17.774Z,29.76
2023-01-19T17:26:17.807Z,29.43
2023-01-19T17:27:17.706Z,29.02
2023-01-19T17:28:17.657Z,29.06
2023-01-19T17:29:17.703Z,28.85
2023-01-19T17:30:17.588Z,28.70
2023-01-19T17:31:17.761Z,28.63
2023-01-19T17:32:17.500Z,28.78
2023-01-19T17:33:17.464Z,28.41
2023-01-19T17:34:17.436Z,28.38
2023-01-19T17:35:17.396Z,28.31
2023-01-19T17:36:17.366Z,28.20
2023-01-19T17:37:17.332Z,28.77
2023-01-19T17:38:17.303Z,28.41
2023-01-19T17:39:17.272Z,28.22
2023-01-19T17:40:17.248Z,28.18
2023-01-19T17:41:17.247Z,28.09
2023-01-19T17:42:17.184Z,28.09
2023-01-19T17:43:17.165Z,28.12
2023-01-19T17:44:17.148Z,28.08
2023-01-19T17:45:17.111Z,28.04
2023-01-19T17:46:17.121Z,28.04
2023-01-19T17:47:17.052Z,28.00
2023-01-19T17:48:17.024Z,27.99
2023-01-19T17:49:17.015Z,27.97
2023-01-19T17:50:16.990Z,27.94
2023-01-19T17:51:16.988Z,27.92
2023-01-19T17:52:17.939Z,27.91
2023-01-19T17:53:16.898Z,27.92
2023-01-19T17:54:16.865Z,27.90
2023-01-19T17:55:16.832Z,27.86
2023-01-19T17:56:16.801Z,27.85
2023-01-19T17:57:16.800Z,27.83
2023-01-19T17:58:16.745Z,27.83
2023-01-19T17:59:16.718Z,27.81
2023-01-19T18:00:16.690Z,27.81
2023-01-19T18:01:16.772Z,27.80
2023-01-19T18:02:16.806Z,27.79
2023-01-19T18:03:16.615Z,27.78
2023-01-19T18:04:16.601Z,27.74
2023-01-19T18:05:16.561Z,27.73
2023-01-19T18:06:16.536Z,27.72
2023-01-19T18:07:16.521Z,27.72
2023-01-19T18:08:16.487Z,27.73
2023-01-19T18:09:16.458Z,27.72
2023-01-19T18:10:16.723Z,27.71
2023-01-19T18:11:16.409Z,27.69
2023-01-19T18:12:16.392Z,27.71
2023-01-19T18:13:16.389Z,27.65
2023-01-19T18:14:16.366Z,27.68
2023-01-19T18:15:17.060Z,27.64
2023-01-19T18:16:16.295Z,27.66
2023-01-19T18:17:16.269Z,27.64
2023-01-19T18:18:16.251Z,27.64
2023-01-19T18:19:16.216Z,27.62
2023-01-19T18:20:16.192Z,27.62
2023-01-19T18:21:16.159Z,27.62
2023-01-19T18:22:16.136Z,27.59
2023-01-19T18:23:16.106Z,27.58
2023-01-19T18:24:16.086Z,27.60
2023-01-19T18:25:16.083Z,27.58
2023-01-19T18:26:16.031Z,27.55
2023-01-19T18:27:16.010Z,27.57
2023-01-19T18:28:15.978Z,27.57
2023-01-19T18:29:15.979Z,27.54
2023-01-19T18:30:15.935Z,27.52
2023-01-19T18:31:15.996Z,27.53
2023-01-19T18:32:15.883Z,27.54
2023-01-19T18:33:15.861Z,27.53
2023-01-19T18:34:15.843Z,27.55
2023-01-19T18:35:15.821Z,27.54
2023-01-19T18:36:15.801Z,27.50
2023-01-19T18:37:15.855Z,27.49
2023-01-19T18:38:15.749Z,27.48
2023-01-19T18:39:15.726Z,27.48
2023-01-19T18:40:15.757Z,27.50
2023-01-19T18:41:15.673Z,27.52
2023-01-19T18:42:15.657Z,27.52
2023-01-19T18:43:15.625Z,27.49
2023-01-19T18:44:15.604Z,27.49
2023-01-19T18:45:15.595Z,27.49
2023-01-19T18:46:15.621Z,27.50
2023-01-19T18:47:15.536Z,27.47
2023-01-19T18:48:17.947Z,27.46
2023-01-19T18:49:15.486Z,27.41
2023-01-19T18:50:15.843Z,27.48
2023-01-19T18:51:15.443Z,27.41
2023-01-19T18:52:15.423Z,27.41
2023-01-19T18:53:15.405Z,27.38
2023-01-19T18:54:15.377Z,27.38